Mens (38) - D

Date : 07/09/2013
Distance : 1520,000 km

Place Nom Licence Catégorie Club Temps min/km CN à J-60 Points Différence Nouveau CN
1 DROIN Solène 17925 D16 4201RA 0:12:21 0'00 5846 4409 -1437 5869
2 BASSET Fiona 23384 D18 6911RA 0:13:17 0'00 4914 4100 -814 4914
3 BERRARD Anna 19762 D16 2607RA 0:13:29 0'00 4623 4039 -584 4855
4 VALETTE Marion 10430 D16 6913RA 0:13:36 0'00 4569 4004 -565 5026
5 DUDOIGNON Chloé 18089 D16 2605RA 0:14:24 0'00 4246 3782 -464 4485
6 DUDOIGNON Marine 17953 D14 2604RA 0:14:57 0'00 2626 3642 +1016 2703
7 BASSET Juliette 12398 D16 6911RA 0:15:02 0'00 4437 3622 -815 4593
8 CORBIN Emma 20916 D16 2604RA 0:15:04 0'00 3288 3614 +326 3907
9 BONORA Lise 11543 D14 6906RA 0:15:05 0'00 3055 3610 +555 3433
10 RIVOLLIER Isaline 22451 D18 4201RA 0:15:39 0'00 4200 3480 -720 4376
11 GENNARO Leslie 20863 D16 3811RA 0:15:43 0'00 3269 3465 +196 3872
12 FERRAND Elise 25011 D14 4203RA 0:16:01 0'00 2488 3400 +912 2805
13 LE GLAND Louise 22186 D14 7404RA 0:16:15 0'00 2710 3351 +641 3222
14 BONORA Marine 11542 D18 6906RA 0:16:27 0'00 3777 3310 -467 4172
15 LEVESY Salomé 23127 D16 3810RA 0:18:14 0'00 3018 2987 -31 3142
16 CORBIN Mariane 20915 D14 2604RA 0:18:25 0'00 2345 2957 +612 2890
17 PERREARD-GARIN Soraya 25343 D16 7407RA 0:19:35 0'00 2354 2781 +427 2354
18 XIMENEZ Lisa 19309 D14 3801RA 0:20:27 0'00 2148 2663 +515 2458
19 DESCOURVIERES Perrine 25550 D16 7407RA 0:20:46 0'00 2481 2622 +141 2594
20 BERLAND Alizée 26818 D18 3809RA 0:27:07 0'01 0 2008 1028
21 BASSET Noëllie 24039 D16 6911RA 0:30:55 0'01 2072 1761 -311 2089